createdAt,value
2022-09-25T00:00:54.356Z,15.90
2022-09-25T00:03:24.235Z,16.00
2022-09-25T00:05:55.754Z,15.80
2022-09-25T00:08:23.487Z,15.90
2022-09-25T00:10:52.670Z,15.90
2022-09-25T00:13:22.020Z,15.80
2022-09-25T00:15:52.882Z,15.80
2022-09-25T00:18:42.290Z,15.80
2022-09-25T00:21:14.186Z,15.80
2022-09-25T00:23:44.725Z,15.70
2022-09-25T00:26:15.335Z,15.70
2022-09-25T00:28:44.136Z,15.70
2022-09-25T00:31:19.506Z,15.60
2022-09-25T00:33:47.317Z,15.70
2022-09-25T00:36:16.419Z,15.60
2022-09-25T00:38:46.190Z,15.60
2022-09-25T00:41:13.966Z,15.60
2022-09-25T00:43:44.525Z,15.70
2022-09-25T00:46:16.606Z,15.60
2022-09-25T00:48:51.206Z,15.60
2022-09-25T00:51:23.978Z,15.50
2022-09-25T00:53:51.928Z,15.50
2022-09-25T00:56:19.817Z,15.50
2022-09-25T00:58:48.722Z,15.60
2022-09-25T01:01:16.605Z,15.50
2022-09-25T01:03:46.322Z,15.60
2022-09-25T01:06:16.030Z,15.60
2022-09-25T01:08:47.100Z,15.50
2022-09-25T01:11:15.158Z,15.40
2022-09-25T01:13:43.176Z,15.40
2022-09-25T01:16:17.204Z,15.40
2022-09-25T01:19:00.794Z,15.40
2022-09-25T01:21:37.671Z,15.40
2022-09-25T01:24:43.752Z,15.40
2022-09-25T01:27:31.486Z,15.30
2022-09-25T01:30:06.815Z,15.40
2022-09-25T01:32:41.810Z,15.30
2022-09-25T01:35:17.854Z,15.20
2022-09-25T01:37:49.926Z,15.20
2022-09-25T01:40:24.513Z,15.20
2022-09-25T01:42:56.425Z,15.30
2022-09-25T01:45:33.020Z,15.20
2022-09-25T01:48:02.212Z,15.20
2022-09-25T01:50:34.022Z,15.30
2022-09-25T01:53:05.039Z,15.30
2022-09-25T01:55:38.430Z,15.30
2022-09-25T01:58:12.480Z,15.30
2022-09-25T02:00:45.440Z,15.20
2022-09-25T02:03:18.303Z,15.40
2022-09-25T02:05:49.582Z,15.40
2022-09-25T02:08:22.079Z,15.40
2022-09-25T02:10:55.823Z,15.40
2022-09-25T02:13:26.324Z,15.40
2022-09-25T02:15:59.692Z,15.50
2022-09-25T02:18:47.069Z,15.60
2022-09-25T02:21:22.187Z,15.50
2022-09-25T02:23:53.981Z,15.60
2022-09-25T02:26:27.535Z,15.70
2022-09-25T02:28:56.418Z,15.70
2022-09-25T02:31:31.040Z,15.60
2022-09-25T02:33:59.524Z,15.70
2022-09-25T02:36:27.311Z,15.70
2022-09-25T02:38:57.200Z,15.60
2022-09-25T02:41:38.376Z,15.70
2022-09-25T02:44:16.456Z,15.70
2022-09-25T02:46:54.452Z,15.70
2022-09-25T02:49:30.309Z,15.60
2022-09-25T02:52:05.371Z,15.60
2022-09-25T02:54:38.746Z,15.70
2022-09-25T02:57:13.047Z,15.70
2022-09-25T02:59:46.127Z,15.70
2022-09-25T03:02:16.632Z,15.80
2022-09-25T03:04:48.123Z,15.90
2022-09-25T03:07:17.146Z,15.90
2022-09-25T03:09:46.833Z,15.90
2022-09-25T03:12:14.972Z,16.00
2022-09-25T03:14:43.291Z,16.00
2022-09-25T03:17:12.580Z,16.00
2022-09-25T03:19:41.725Z,16.10
2022-09-25T03:22:09.478Z,16.00
2022-09-25T03:24:38.420Z,16.00
2022-09-25T03:27:06.179Z,16.00
2022-09-25T03:29:33.919Z,16.00
2022-09-25T03:32:01.980Z,16.00
2022-09-25T03:34:29.850Z,16.00
2022-09-25T03:36:58.939Z,16.00
2022-09-25T03:39:26.697Z,16.00
2022-09-25T03:41:54.404Z,16.00
2022-09-25T03:44:22.205Z,16.00
2022-09-25T03:46:49.973Z,16.00
2022-09-25T03:49:17.743Z,15.90
2022-09-25T03:51:45.501Z,15.80
2022-09-25T03:54:14.764Z,15.80
2022-09-25T03:56:42.627Z,15.70
2022-09-25T03:59:10.480Z,15.70
2022-09-25T04:01:38.615Z,15.70
2022-09-25T04:04:06.440Z,15.70
2022-09-25T04:06:34.218Z,15.70
2022-09-25T04:09:01.928Z,15.60
2022-09-25T04:11:31.861Z,15.60
2022-09-25T04:13:59.628Z,15.50
2022-09-25T04:16:29.449Z,15.70
2022-09-25T04:18:57.274Z,15.60
2022-09-25T04:21:25.036Z,15.60
2022-09-25T04:24:06.793Z,15.70
2022-09-25T04:26:36.200Z,15.70
2022-09-25T04:29:04.093Z,15.60
2022-09-25T04:31:32.405Z,15.60
2022-09-25T04:33:59.244Z,15.50
2022-09-25T04:36:26.981Z,15.50
2022-09-25T04:38:54.692Z,15.50
2022-09-25T04:41:22.601Z,15.50
2022-09-25T04:43:51.681Z,15.40
2022-09-25T04:46:22.427Z,15.40
2022-09-25T04:48:51.242Z,15.40
2022-09-25T04:51:19.360Z,15.40
2022-09-25T04:53:47.205Z,15.40
2022-09-25T04:56:16.347Z,15.40
2022-09-25T04:58:47.305Z,15.40
2022-09-25T05:01:18.541Z,15.40
2022-09-25T05:03:49.042Z,15.40
2022-09-25T05:06:17.156Z,15.40
2022-09-25T05:08:44.922Z,15.50
2022-09-25T05:11:13.440Z,15.50
2022-09-25T05:13:41.989Z,15.40
2022-09-25T05:16:09.787Z,15.30
2022-09-25T05:18:39.123Z,15.30
2022-09-25T05:21:07.232Z,15.30
2022-09-25T05:23:35.036Z,15.30
2022-09-25T05:26:03.229Z,15.20
2022-09-25T05:28:31.109Z,15.30
2022-09-25T05:31:02.582Z,15.30
2022-09-25T05:33:30.695Z,15.30
2022-09-25T05:36:03.206Z,15.20
2022-09-25T05:38:33.935Z,15.30
2022-09-25T05:41:04.724Z,15.30
2022-09-25T05:43:32.714Z,15.30
2022-09-25T05:46:00.768Z,15.20
2022-09-25T05:48:28.591Z,15.20
2022-09-25T05:50:57.995Z,15.20
2022-09-25T05:53:27.810Z,15.20
2022-09-25T05:55:58.105Z,15.20
2022-09-25T05:58:26.753Z,15.20
2022-09-25T06:00:55.364Z,15.20
2022-09-25T06:03:23.658Z,15.20
2022-09-25T06:05:51.421Z,15.30
2022-09-25T06:08:19.519Z,15.30
2022-09-25T06:10:53.794Z,15.30
2022-09-25T06:13:21.903Z,15.40
2022-09-25T06:15:52.357Z,15.30
2022-09-25T06:18:21.517Z,15.20
2022-09-25T06:20:50.204Z,15.30
2022-09-25T06:23:19.075Z,15.30
2022-09-25T06:25:48.193Z,15.40
2022-09-25T06:28:15.951Z,15.30
2022-09-25T06:30:43.734Z,15.40
2022-09-25T06:33:13.616Z,15.40
2022-09-25T06:35:43.252Z,15.40
2022-09-25T06:38:11.577Z,15.30
2022-09-25T06:40:40.956Z,15.40
2022-09-25T06:43:12.971Z,15.50
2022-09-25T06:45:41.318Z,15.40
2022-09-25T06:48:11.680Z,15.30
2022-09-25T06:50:42.090Z,15.30
2022-09-25T06:53:11.051Z,15.40
2022-09-25T06:55:39.108Z,15.30
2022-09-25T06:58:08.339Z,15.40
2022-09-25T07:00:37.464Z,15.40
2022-09-25T07:03:23.063Z,15.50
2022-09-25T07:05:51.704Z,15.50
2022-09-25T07:08:21.010Z,15.50
2022-09-25T07:10:50.398Z,15.50
2022-09-25T07:13:18.877Z,15.60
2022-09-25T07:15:53.677Z,15.60
2022-09-25T07:18:21.812Z,15.70
2022-09-25T07:20:49.600Z,15.70
2022-09-25T07:23:18.984Z,15.80
2022-09-25T07:25:47.235Z,15.80
2022-09-25T07:28:15.883Z,15.80
2022-09-25T07:30:44.272Z,15.90
2022-09-25T07:33:13.503Z,15.90
2022-09-25T07:35:41.232Z,16.00
2022-09-25T07:38:09.365Z,16.10
2022-09-25T07:40:37.229Z,16.10
2022-09-25T07:43:08.420Z,16.10
2022-09-25T07:45:36.758Z,16.10
2022-09-25T07:48:06.205Z,16.20
2022-09-25T07:50:35.428Z,16.20
2022-09-25T07:53:03.188Z,16.20
2022-09-25T07:55:30.951Z,16.30
2022-09-25T07:57:59.280Z,16.30
2022-09-25T08:00:27.063Z,16.40
2022-09-25T08:02:58.853Z,16.40
2022-09-25T08:05:27.912Z,16.40
2022-09-25T08:07:56.991Z,16.50
2022-09-25T08:10:24.828Z,16.60
2022-09-25T08:12:52.635Z,16.60
2022-09-25T08:15:20.437Z,16.70
2022-09-25T08:17:48.246Z,16.70
2022-09-25T08:20:16.225Z,16.70
2022-09-25T08:22:44.027Z,16.70
2022-09-25T08:25:13.135Z,16.80
2022-09-25T08:27:41.436Z,16.80
2022-09-25T08:30:11.027Z,16.80
2022-09-25T08:32:39.152Z,16.80
2022-09-25T08:35:08.028Z,16.80
2022-09-25T08:37:35.855Z,16.90
2022-09-25T08:40:03.707Z,16.90
2022-09-25T08:42:36.681Z,16.90
2022-09-25T08:45:25.961Z,16.90
2022-09-25T08:48:13.334Z,17.00
2022-09-25T08:50:41.333Z,17.00
2022-09-25T08:56:12.870Z,17.00
2022-09-25T08:58:45.843Z,17.10
2022-09-25T09:01:17.014Z,17.10
2022-09-25T09:03:51.097Z,17.10
2022-09-25T09:06:19.876Z,17.10
2022-09-25T09:08:54.266Z,17.10
2022-09-25T09:11:26.581Z,17.10
2022-09-25T09:14:02.773Z,17.10
2022-09-25T09:16:36.432Z,17.20
2022-09-25T09:19:06.906Z,17.20
2022-09-25T09:21:36.648Z,17.30
2022-09-25T09:24:10.753Z,17.40
2022-09-25T09:27:05.062Z,17.50
2022-09-25T09:29:48.897Z,17.50
2022-09-25T09:32:30.409Z,17.50
2022-09-25T09:35:11.085Z,17.40
2022-09-25T09:37:50.838Z,17.50
2022-09-25T09:40:32.555Z,17.60
2022-09-25T09:43:10.288Z,17.70
2022-09-25T09:45:47.308Z,17.90
2022-09-25T09:48:21.208Z,17.90
2022-09-25T09:50:53.151Z,18.00
2022-09-25T09:53:29.896Z,18.10
2022-09-25T09:56:01.924Z,18.10
2022-09-25T09:58:36.776Z,18.10
2022-09-25T10:01:22.504Z,18.00
2022-09-25T10:04:03.862Z,18.00
2022-09-25T10:06:35.784Z,18.10
2022-09-25T10:09:03.659Z,18.00
2022-09-25T10:11:33.111Z,18.00
2022-09-25T10:14:04.950Z,18.00
2022-09-25T10:16:35.013Z,18.10
2022-09-25T10:19:08.127Z,18.20
2022-09-25T10:21:41.190Z,18.20
2022-09-25T10:24:08.949Z,18.20
2022-09-25T10:26:38.219Z,18.20
2022-09-25T10:29:26.020Z,18.20
2022-09-25T10:32:00.928Z,18.20
2022-09-25T10:34:29.688Z,18.20
2022-09-25T10:36:57.890Z,18.30
2022-09-25T10:39:44.213Z,18.50
2022-09-25T10:42:39.205Z,18.70
2022-09-25T10:45:31.783Z,18.80
2022-09-25T10:48:18.903Z,18.80
2022-09-25T10:51:05.886Z,18.80
2022-09-25T10:53:33.677Z,19.00
2022-09-25T10:56:05.910Z,18.90
2022-09-25T10:58:39.155Z,19.00
2022-09-25T11:01:13.175Z,18.90
2022-09-25T11:03:50.960Z,18.90
2022-09-25T11:06:27.269Z,19.00
2022-09-25T11:09:07.643Z,19.10
2022-09-25T11:11:36.197Z,19.20
2022-09-25T11:14:06.111Z,19.00
2022-09-25T11:16:53.121Z,19.10
2022-09-25T11:19:28.828Z,19.10
2022-09-25T11:22:07.718Z,18.90
2022-09-25T11:24:50.719Z,19.00
2022-09-25T11:27:21.997Z,19.00
2022-09-25T11:29:58.985Z,19.10
2022-09-25T11:32:32.043Z,19.10
2022-09-25T11:35:19.503Z,19.20
2022-09-25T11:37:59.012Z,19.20
2022-09-25T11:40:59.503Z,19.20
2022-09-25T11:43:39.791Z,19.10
2022-09-25T11:46:19.303Z,19.20
2022-09-25T11:48:55.340Z,19.10
2022-09-25T11:51:44.737Z,19.30
2022-09-25T11:54:33.750Z,19.20
2022-09-25T11:57:07.519Z,19.20
2022-09-25T11:59:47.623Z,19.20
2022-09-25T12:02:32.431Z,19.20
2022-09-25T12:05:17.656Z,19.20
2022-09-25T12:08:05.757Z,19.20
2022-09-25T12:10:45.711Z,19.20
2022-09-25T12:13:22.482Z,19.30
2022-09-25T12:16:03.530Z,19.10
2022-09-25T12:18:47.405Z,19.10
2022-09-25T12:21:18.761Z,19.10
2022-09-25T12:23:54.350Z,19.10
2022-09-25T12:26:27.653Z,19.20
2022-09-25T12:29:20.303Z,19.30
2022-09-25T12:31:58.230Z,19.30
2022-09-25T12:34:38.570Z,19.50
2022-09-25T12:37:22.161Z,19.40
2022-09-25T12:39:59.165Z,19.50
2022-09-25T12:42:38.829Z,19.60
2022-09-25T12:45:17.295Z,19.80
2022-09-25T12:47:51.741Z,19.90
2022-09-25T12:50:25.985Z,20.00
2022-09-25T12:52:57.785Z,20.10
2022-09-25T12:55:34.065Z,20.20
2022-09-25T12:58:18.076Z,20.20
2022-09-25T13:00:47.883Z,20.20
2022-09-25T13:03:22.560Z,20.30
2022-09-25T13:05:55.815Z,20.30
2022-09-25T13:08:28.397Z,20.40
2022-09-25T13:11:02.631Z,20.30
2022-09-25T13:13:33.466Z,20.60
2022-09-25T13:16:02.870Z,20.40
2022-09-25T13:18:33.924Z,20.40
2022-09-25T13:21:26.900Z,20.40
2022-09-25T13:23:56.668Z,20.30
2022-09-25T13:26:27.730Z,20.30
2022-09-25T13:29:00.116Z,20.20
2022-09-25T13:31:30.259Z,20.10
2022-09-25T13:34:04.978Z,19.90
2022-09-25T13:36:36.710Z,19.90
2022-09-25T13:39:25.055Z,19.90
2022-09-25T13:41:57.777Z,19.90
2022-09-25T13:44:52.456Z,19.80
2022-09-25T13:47:49.680Z,19.80
2022-09-25T13:50:24.452Z,19.50
2022-09-25T13:53:20.543Z,19.50
2022-09-25T13:56:18.533Z,19.50
2022-09-25T13:59:25.337Z,19.50
2022-09-25T14:01:56.246Z,19.50
2022-09-25T14:04:29.908Z,19.50
2022-09-25T14:07:05.664Z,19.50
2022-09-25T14:09:35.187Z,19.40
2022-09-25T14:12:13.261Z,19.50
2022-09-25T14:14:52.680Z,19.50
2022-09-25T14:17:22.695Z,19.60
2022-09-25T14:19:53.714Z,19.60
2022-09-25T14:22:34.608Z,19.40
2022-09-25T14:25:02.937Z,19.20
2022-09-25T14:27:30.948Z,19.40
2022-09-25T14:30:10.998Z,19.40
2022-09-25T14:32:55.615Z,19.40
2022-09-25T14:35:46.279Z,19.30
2022-09-25T14:38:35.903Z,19.20
2022-09-25T14:41:22.063Z,19.30
2022-09-25T14:44:04.164Z,19.20
2022-09-25T14:46:34.454Z,19.10
2022-09-25T14:49:08.350Z,18.80
2022-09-25T14:51:44.430Z,18.80
2022-09-25T14:54:17.029Z,18.80
2022-09-25T14:56:46.968Z,18.70
2022-09-25T14:59:19.437Z,18.70
2022-09-25T15:01:51.244Z,18.70
2022-09-25T15:04:27.927Z,18.70
2022-09-25T15:07:03.248Z,18.70
2022-09-25T15:09:37.356Z,18.70
2022-09-25T15:12:21.774Z,18.60
2022-09-25T15:15:07.986Z,18.70
2022-09-25T15:17:48.820Z,18.70
2022-09-25T15:20:20.692Z,18.80
2022-09-25T15:22:53.745Z,18.80
2022-09-25T15:25:28.207Z,18.80
2022-09-25T15:27:56.194Z,18.80
2022-09-25T15:30:27.079Z,18.80
2022-09-25T15:33:00.674Z,18.80
2022-09-25T15:35:30.264Z,18.90
2022-09-25T15:38:08.879Z,18.90
2022-09-25T15:40:36.999Z,18.90
2022-09-25T15:43:11.549Z,18.80
2022-09-25T15:45:46.177Z,18.70
2022-09-25T15:48:28.120Z,18.80
2022-09-25T15:50:56.265Z,18.80
2022-09-25T15:53:28.683Z,18.70
2022-09-25T15:56:07.606Z,18.80
2022-09-25T15:58:44.308Z,18.80
2022-09-25T16:01:32.848Z,18.80
2022-09-25T16:04:20.106Z,18.80
2022-09-25T16:06:49.859Z,18.70
2022-09-25T16:09:24.552Z,18.70
2022-09-25T16:11:52.485Z,18.70
2022-09-25T16:14:29.242Z,18.70
2022-09-25T16:16:59.929Z,18.60
2022-09-25T16:19:33.480Z,18.70
2022-09-25T16:22:14.931Z,18.60
2022-09-25T16:24:43.151Z,18.60
2022-09-25T16:27:27.010Z,18.60
2022-09-25T16:29:59.972Z,18.40
2022-09-25T16:32:31.029Z,18.40
2022-09-25T16:35:02.595Z,18.40
2022-09-25T16:37:33.953Z,18.50
2022-09-25T16:40:22.878Z,18.50
2022-09-25T16:42:51.369Z,18.50
2022-09-25T16:45:24.032Z,18.50
2022-09-25T16:47:52.412Z,18.50
2022-09-25T16:50:22.889Z,18.40
2022-09-25T16:52:50.776Z,18.30
2022-09-25T16:55:23.075Z,18.30
2022-09-25T16:57:52.016Z,18.20
2022-09-25T17:00:23.745Z,18.20
2022-09-25T17:02:51.926Z,18.20
2022-09-25T17:05:23.167Z,18.10
2022-09-25T17:07:52.662Z,17.90
2022-09-25T17:10:23.306Z,17.90
2022-09-25T17:12:54.046Z,17.80
2022-09-25T17:15:24.480Z,17.90
2022-09-25T17:17:55.163Z,17.90
2022-09-25T17:20:25.840Z,17.90
2022-09-25T17:22:54.651Z,17.80
2022-09-25T17:25:31.805Z,17.70
2022-09-25T17:27:59.949Z,17.80
2022-09-25T17:30:28.228Z,17.80
2022-09-25T17:32:56.025Z,17.70
2022-09-25T17:35:36.280Z,17.60
2022-09-25T17:38:04.346Z,17.50
2022-09-25T17:40:33.173Z,17.50
2022-09-25T17:43:02.268Z,17.50
2022-09-25T17:45:36.568Z,17.40
2022-09-25T17:48:04.772Z,17.40
2022-09-25T17:50:35.554Z,17.40
2022-09-25T17:53:05.003Z,17.30
2022-09-25T17:55:34.073Z,17.30
2022-09-25T17:58:01.823Z,17.30
2022-09-25T18:00:29.647Z,17.30
2022-09-25T18:02:57.434Z,17.10
2022-09-25T18:05:25.841Z,17.20
2022-09-25T18:07:54.961Z,17.10
2022-09-25T18:10:23.499Z,17.00
2022-09-25T18:12:51.243Z,17.00
2022-09-25T18:15:19.182Z,17.10
2022-09-25T18:17:46.894Z,17.00
2022-09-25T18:20:35.048Z,17.10
2022-09-25T18:23:04.406Z,17.00
2022-09-25T18:25:33.496Z,17.00
2022-09-25T18:28:01.994Z,17.10
2022-09-25T18:30:30.301Z,17.00
2022-09-25T18:32:58.092Z,17.00
2022-09-25T18:35:25.911Z,17.00
2022-09-25T18:37:53.696Z,17.10
2022-09-25T18:40:22.903Z,17.10
2022-09-25T18:42:51.232Z,17.20
2022-09-25T18:45:19.861Z,17.20
2022-09-25T18:47:47.625Z,17.10
2022-09-25T18:50:20.635Z,17.10
2022-09-25T18:52:48.863Z,17.10
2022-09-25T18:55:16.756Z,17.10
2022-09-25T18:57:45.850Z,17.20
2022-09-25T19:00:14.004Z,17.10
2022-09-25T19:02:42.570Z,17.10
2022-09-25T19:05:11.288Z,17.10
2022-09-25T19:07:39.313Z,17.10
2022-09-25T19:10:10.738Z,17.10
2022-09-25T19:12:38.500Z,17.00
2022-09-25T19:15:08.564Z,17.00
2022-09-25T19:17:37.043Z,17.00
2022-09-25T19:20:05.513Z,17.00
2022-09-25T19:22:33.535Z,17.00
2022-09-25T19:25:03.640Z,16.90
2022-09-25T19:27:33.093Z,16.90
2022-09-25T19:30:00.868Z,16.90
2022-09-25T19:32:29.951Z,16.80
2022-09-25T19:34:57.655Z,16.80
2022-09-25T19:37:29.596Z,16.80
2022-09-25T19:40:14.761Z,16.70
2022-09-25T19:42:42.573Z,16.70
2022-09-25T19:45:11.174Z,16.70
2022-09-25T19:47:40.277Z,16.60
2022-09-25T19:50:10.557Z,16.60
2022-09-25T19:52:38.312Z,16.60
2022-09-25T19:55:06.739Z,16.60
2022-09-25T19:57:34.701Z,16.60
2022-09-25T20:00:02.714Z,16.60
2022-09-25T20:02:30.518Z,16.60
2022-09-25T20:05:00.039Z,16.60
2022-09-25T20:07:27.791Z,16.50
2022-09-25T20:09:55.532Z,16.50
2022-09-25T20:12:23.264Z,16.50
2022-09-25T20:14:50.982Z,16.40
2022-09-25T20:17:18.766Z,16.50
2022-09-25T20:19:46.531Z,16.40
2022-09-25T20:22:15.778Z,16.50
2022-09-25T20:24:43.556Z,16.50
2022-09-25T20:27:11.256Z,16.40
2022-09-25T20:29:39.047Z,16.50
2022-09-25T20:32:06.816Z,16.50
2022-09-25T20:34:34.591Z,16.50
2022-09-25T20:37:03.606Z,16.40
2022-09-25T20:39:32.704Z,16.40
2022-09-25T20:42:00.423Z,16.40
2022-09-25T20:44:28.212Z,16.30
2022-09-25T20:46:55.931Z,16.40
2022-09-25T20:49:23.748Z,16.40
2022-09-25T20:51:51.515Z,16.30
2022-09-25T20:54:19.237Z,16.40
2022-09-25T20:56:48.336Z,16.50
2022-09-25T20:59:17.768Z,16.30
2022-09-25T21:01:45.997Z,16.30
2022-09-25T21:04:17.904Z,16.40
2022-09-25T21:06:45.707Z,16.30
2022-09-25T21:09:20.126Z,16.30
2022-09-25T21:11:49.966Z,16.40
2022-09-25T21:14:19.885Z,16.40
2022-09-25T21:16:48.489Z,16.40
2022-09-25T21:19:17.892Z,16.30
2022-09-25T21:21:46.748Z,16.40
2022-09-25T21:24:15.676Z,16.40
2022-09-25T21:26:44.155Z,16.40
2022-09-25T21:29:15.669Z,16.30
2022-09-25T21:31:49.307Z,16.20
2022-09-25T21:34:17.953Z,16.40
2022-09-25T21:36:46.182Z,16.40
2022-09-25T21:39:17.450Z,16.40
2022-09-25T21:41:45.247Z,16.40
2022-09-25T21:44:20.061Z,16.50
2022-09-25T21:46:47.888Z,16.50
2022-09-25T21:49:17.751Z,16.40
2022-09-25T21:51:46.896Z,16.50
2022-09-25T21:54:17.197Z,16.50
2022-09-25T21:56:45.344Z,16.50
2022-09-25T21:59:14.616Z,16.50
2022-09-25T22:01:43.088Z,16.50
2022-09-25T22:04:13.518Z,16.60
2022-09-25T22:06:44.298Z,16.50
2022-09-25T22:09:14.192Z,16.70
2022-09-25T22:11:43.468Z,16.70
2022-09-25T22:14:15.876Z,16.60
2022-09-25T22:16:47.274Z,16.60
2022-09-25T22:19:17.238Z,16.60
2022-09-25T22:21:47.568Z,16.60
2022-09-25T22:24:15.846Z,16.60
2022-09-25T22:26:46.643Z,16.70
2022-09-25T22:29:16.343Z,16.60
2022-09-25T22:31:45.484Z,16.70
2022-09-25T22:34:19.547Z,16.80
2022-09-25T22:36:48.127Z,16.70
2022-09-25T22:39:17.924Z,16.70
2022-09-25T22:41:45.994Z,16.80
2022-09-25T22:44:13.866Z,16.70
2022-09-25T22:46:41.603Z,16.80
2022-09-25T22:49:10.709Z,16.80
2022-09-25T22:51:38.496Z,16.80
2022-09-25T22:54:06.906Z,16.80
2022-09-25T22:56:36.062Z,16.80
2022-09-25T22:59:10.917Z,16.80
2022-09-25T23:01:43.217Z,16.80
2022-09-25T23:04:14.611Z,16.80
2022-09-25T23:06:42.832Z,16.80
2022-09-25T23:09:13.605Z,16.80
2022-09-25T23:11:41.851Z,16.80
2022-09-25T23:14:14.206Z,16.80
2022-09-25T23:16:41.954Z,16.90
2022-09-25T23:19:09.900Z,16.90
2022-09-25T23:21:39.145Z,16.90
2022-09-25T23:24:09.767Z,16.90
2022-09-25T23:26:37.571Z,16.90
2022-09-25T23:29:05.439Z,16.90
2022-09-25T23:31:34.006Z,16.90
2022-09-25T23:34:02.783Z,16.90
2022-09-25T23:36:31.486Z,16.80
2022-09-25T23:39:01.854Z,16.90
2022-09-25T23:41:31.855Z,16.80
2022-09-25T23:44:00.746Z,16.90
2022-09-25T23:46:30.523Z,16.90
2022-09-25T23:48:58.779Z,16.90
2022-09-25T23:51:27.367Z,16.90
2022-09-25T23:53:56.967Z,16.90
2022-09-25T23:56:28.988Z,16.90
2022-09-25T23:58:58.086Z,16.90
